map of DHR home
DHR - Airport
Location
City:  Den Helder, Noord-Holland (North Holland), Netherlands
Name:De Kooy Airfield
Old (Alt.):Den Helder Airport, Maritiem Vliegkamp De Kooy
ICAO:EHKD
IATA:DHR

Details
Type:Airport (Aerodrome, Airfield)
Use:Military
Latitude:5255'24"N (52.923353)
Longitude:446'50"E (4.780625)
Datum:WGS 1984
Elevation:3 ft (1 m)
Variation:1.41E (WMM2015v2 magnetic declination)
0.19 annual change
Runways:1
Longest:4183 × 98 ft (1275 × 30 m), paved

Time
Time Zone:UTC+1 (DST+2)
Local Time:

Weather
METAR:EHKD 041402Z AUTO 20024KT 2800 R21/2800D -SNRA SCT005 BKN006 OVC008 02/02 Q1017 YLO 20022G35KT 8000 SCT008 BKN015 TEMPO 3000 RASN DZ BKN005 BKN010

Related Locations
Nearby:
Farthest:CHT: 11798 mi / 18987 km
Waitangi [Tuuta], CIT, NZ

Find:

   beyond  
but within

Other Information
Maps:
NOTAMs:
Links:
Sources:

  
  • flag of Netherlands
  • flag of Noord-Holland (North Holland)
  

Airport Diagram

Airport diagram for DHR

Larger airport diagram (OBSOLETE) from NGA

Sectional Chart

Flight Planning
at skyvector.com

Satellite Image

Google Maps Satellite view

 

Copyright © 2004-2019 Karl L. Swartz. All rights reserved.
The Great Circle Mapper name and logo are trademarks of the Great Circle Mapper.
All other trademarks mentioned herein belong to their respective owners.
Please see credits for attibutions and further copyright information.

  Follow gcmap on Facebook Follow gcmap on Twitter GCmap on LinkedIn

hCard Microformat

Geo Microformat